Kosseir, Egypt

14:38 EET 3. Březen 2015 (GMT +0200)
Marsa Alam International | Change Station
CLOSE
Current Station
Letiště
Location: Marsa Alam International,
Nadmořská výška: 253 ft
Poblíž povětrnostní stanice

Výška 253 ft 25.56 °N, 34.58 °E | Updated 38 minutes ago

Clear
Jasno
77 °F
Pocit jako 77 °F
S
17
Vítr proměnlivý Vítr od severní

Dnes
Vysoké -- | Nízké -- °F
--% Možnost srážek
Včera
Vysoké -- | Nízké -- °F
Precip. -- inčů
6:05 AM 5:45 PM
Dorůstající měsíc, 96% visible
Tlak 30.04 inčů
Viditelnost -9999.0 mílí
Zataženo
Rosný bod 39 °F
Vlhkost 26%
Dešťové srážky 0.00 inčů
Sněhová pokrývka Není k dispozici
UV záření Není k dispozici
Pyl Není k dispozici
Kvalita ovzduší Není k dispozici
Flu Activity Není k dispozici
METAR HEMA 031200Z 36015KT CAVOK 25/04 Q1017 NOSIG

More Conditions Fewer Conditions

Tlak 30.04 inčů
Viditelnost -9999.0 mílí
Zataženo
Rosný bod 39 °F
Vlhkost 26%
Dešťové srážky 0.00 inčů
Sněhová pokrývka Není k dispozici
UV záření Není k dispozici
Pyl Není k dispozici
Kvalita ovzduší Není k dispozici
Flu Activity Není k dispozici
METAR HEMA 031200Z 36015KT CAVOK 25/04 Q1017 NOSIG

More Conditions Fewer Conditions

10-Day Weather Forecast

Almanac

Astronomie

Mar. 03, 2015 Východ Západ
Skutečný čas
Občanský soumrak
Námořní soumrak
Astronomický soumrak
Měsíc
Délka denního světla
Délka dne
Tomorrow will be .
, % of the Moon is Illuminated

Dnešní extrémy

Nejvyšší hodnoty ve státě Nejnižší hodnoty ve státě

Community

WunderPhotos

Upload Photos

1,802,096 snímků staženo!

WunderBlogs® & News

Nearby

Kvalita ovzduší

  Kvalita ovzduší Index kvality ovzduší Polutant
Not available.

Výška sněhu

Station Hloubka Nadmořská výška

Seizmická činnost

Město Distance Mag. Čas & datum
Minimální zobrazený rozsah je 2.5.

Pobřežní teplota vody

Lokalita Teplota

Poblíž povětrnostní stanice